KHOT/HOT METAR and TAF weather

Enter ICAO airport designator
Station Type Date Time Source
KHOT METAR 2019/08/22 04:53 UTC NOAA

KHOT 220453Z AUTO 00000KT 10SM CLR 27/22 A2998 RMK AO2 SLP142 T02720222 TSNO


Station Type Date Time Source
KHOT Decoded METAR 2019/08/22 04:53 UTC NOAA

Station name not available
Aug 22, 2019 - 12:53 AM EDT / 2019.08.22 0453 UTC
Wind: Calm:0
Visibility: 10 mile(s):0
Sky conditions: clear
Temperature: 81.0 F (27.2 C)
Dew Point: 72.0 F (22.2 C)
Relative Humidity: 74%
Pressure (altimeter): 29.98 in. Hg (1015 hPa)
ob: KHOT 220453Z AUTO 00000KT 10SM CLR 27/22 A2998 RMK AO2 SLP142 T02720222 TSNO
cycle: 5

Station Type Date Time Source
KHOT TAF 2019/08/21 18:39 UTC NOAA

KHOT 211735Z 2118/2218 17005KT P6SM SCT045 BKN250
FM220000 15003KT P6SM SCT250
FM221500 24004KT P6SM SCT040

Example: see airport list